sensor_id;sensor_type;location;lat;lon;timestamp;P1;durP1;ratioP1;P2;durP2;ratioP2
51358;SDS011;37448;51.588;7.248;2023-03-13T00:00:49;8.02;;;2.33;;
51358;SDS011;37448;51.588;7.248;2023-03-13T00:02:50;12.85;;;3.38;;
51358;SDS011;37448;51.588;7.248;2023-03-13T00:04:50;17.05;;;3.70;;
51358;SDS011;37448;51.588;7.248;2023-03-13T00:06:50;4.93;;;2.03;;
51358;SDS011;37448;51.588;7.248;2023-03-13T00:08:51;10.95;;;2.50;;
51358;SDS011;37448;51.588;7.248;2023-03-13T00:10:51;11.70;;;2.60;;
51358;SDS011;37448;51.588;7.248;2023-03-13T00:12:52;14.27;;;2.53;;
51358;SDS011;37448;51.588;7.248;2023-03-13T00:14:52;9.35;;;2.15;;
51358;SDS011;37448;51.588;7.248;2023-03-13T00:16:52;19.42;;;3.25;;
51358;SDS011;37448;51.588;7.248;2023-03-13T00:18:53;9.93;;;3.45;;
51358;SDS011;37448;51.588;7.248;2023-03-13T00:21:02;11.85;;;2.78;;
51358;SDS011;37448;51.588;7.248;2023-03-13T00:23:04;6.10;;;1.85;;
51358;SDS011;37448;51.588;7.248;2023-03-13T00:25:05;8.73;;;2.03;;
51358;SDS011;37448;51.588;7.248;2023-03-13T00:27:05;11.88;;;2.20;;
51358;SDS011;37448;51.588;7.248;2023-03-13T00:29:06;11.50;;;2.72;;
51358;SDS011;37448;51.588;7.248;2023-03-13T00:33:08;7.68;;;2.75;;
51358;SDS011;37448;51.588;7.248;2023-03-13T00:35:08;9.85;;;2.03;;
51358;SDS011;37448;51.588;7.248;2023-03-13T00:37:08;13.30;;;3.35;;
51358;SDS011;37448;51.588;7.248;2023-03-13T00:39:09;8.60;;;2.70;;
51358;SDS011;37448;51.588;7.248;2023-03-13T00:41:10;12.50;;;2.22;;
51358;SDS011;37448;51.588;7.248;2023-03-13T00:43:12;7.22;;;2.35;;
51358;SDS011;37448;51.588;7.248;2023-03-13T00:45:13;15.45;;;2.65;;
51358;SDS011;37448;51.588;7.248;2023-03-13T00:47:13;10.15;;;1.88;;
51358;SDS011;37448;51.588;7.248;2023-03-13T00:49:13;14.40;;;3.75;;
51358;SDS011;37448;51.588;7.248;2023-03-13T00:51:15;12.30;;;2.80;;
51358;SDS011;37448;51.588;7.248;2023-03-13T00:53:16;10.57;;;2.08;;
51358;SDS011;37448;51.588;7.248;2023-03-13T00:55:16;5.35;;;1.45;;
51358;SDS011;37448;51.588;7.248;2023-03-13T00:57:17;13.27;;;1.83;;
51358;SDS011;37448;51.588;7.248;2023-03-13T00:59:17;8.73;;;2.80;;
51358;SDS011;37448;51.588;7.248;2023-03-13T01:01:24;13.38;;;2.42;;
51358;SDS011;37448;51.588;7.248;2023-03-13T01:05:28;7.17;;;1.93;;
51358;SDS011;37448;51.588;7.248;2023-03-13T01:07:28;8.85;;;2.13;;
51358;SDS011;37448;51.588;7.248;2023-03-13T01:09:28;10.98;;;2.00;;
51358;SDS011;37448;51.588;7.248;2023-03-13T01:11:30;9.30;;;1.90;;
51358;SDS011;37448;51.588;7.248;2023-03-13T01:15:34;10.82;;;2.08;;
51358;SDS011;37448;51.588;7.248;2023-03-13T01:17:35;12.10;;;2.35;;
51358;SDS011;37448;51.588;7.248;2023-03-13T01:19:35;13.18;;;2.40;;
51358;SDS011;37448;51.588;7.248;2023-03-13T01:21:35;10.73;;;2.45;;
51358;SDS011;37448;51.588;7.248;2023-03-13T01:23:36;6.20;;;2.55;;
51358;SDS011;37448;51.588;7.248;2023-03-13T01:25:37;8.00;;;2.42;;
51358;SDS011;37448;51.588;7.248;2023-03-13T01:27:37;9.57;;;2.53;;
51358;SDS011;37448;51.588;7.248;2023-03-13T01:29:38;11.98;;;1.98;;
51358;SDS011;37448;51.588;7.248;2023-03-13T01:31:38;11.88;;;2.47;;
51358;SDS011;37448;51.588;7.248;2023-03-13T01:33:40;13.95;;;2.95;;
51358;SDS011;37448;51.588;7.248;2023-03-13T01:35:41;19.73;;;4.05;;
51358;SDS011;37448;51.588;7.248;2023-03-13T01:37:41;12.15;;;1.98;;
51358;SDS011;37448;51.588;7.248;2023-03-13T01:39:42;8.27;;;2.72;;
51358;SDS011;37448;51.588;7.248;2023-03-13T01:41:42;7.88;;;2.05;;
51358;SDS011;37448;51.588;7.248;2023-03-13T01:43:43;12.85;;;2.10;;
51358;SDS011;37448;51.588;7.248;2023-03-13T01:50:46;16.15;;;3.67;;
51358;SDS011;37448;51.588;7.248;2023-03-13T01:52:57;13.98;;;3.30;;
51358;SDS011;37448;51.588;7.248;2023-03-13T01:55:04;12.32;;;2.65;;
51358;SDS011;37448;51.588;7.248;2023-03-13T01:57:16;8.65;;;2.63;;
51358;SDS011;37448;51.588;7.248;2023-03-13T01:59:26;11.27;;;2.30;;
51358;SDS011;37448;51.588;7.248;2023-03-13T02:01:31;12.80;;;2.22;;
51358;SDS011;37448;51.588;7.248;2023-03-13T02:03:33;14.32;;;2.58;;
51358;SDS011;37448;51.588;7.248;2023-03-13T02:05:35;9.70;;;3.17;;
51358;SDS011;37448;51.588;7.248;2023-03-13T02:07:42;8.95;;;1.55;;
51358;SDS011;37448;51.588;7.248;2023-03-13T02:09:49;7.35;;;1.98;;
51358;SDS011;37448;51.588;7.248;2023-03-13T02:12:00;14.38;;;3.15;;
51358;SDS011;37448;51.588;7.248;2023-03-13T02:14:03;6.55;;;1.90;;
51358;SDS011;37448;51.588;7.248;2023-03-13T02:16:04;10.10;;;2.58;;
51358;SDS011;37448;51.588;7.248;2023-03-13T02:18:05;14.23;;;2.92;;
51358;SDS011;37448;51.588;7.248;2023-03-13T02:20:06;11.30;;;2.08;;
51358;SDS011;37448;51.588;7.248;2023-03-13T02:24:32;12.20;;;2.13;;
51358;SDS011;37448;51.588;7.248;2023-03-13T02:26:41;18.92;;;4.15;;
51358;SDS011;37448;51.588;7.248;2023-03-13T02:28:41;10.00;;;2.72;;
51358;SDS011;37448;51.588;7.248;2023-03-13T02:30:46;9.07;;;2.35;;
51358;SDS011;37448;51.588;7.248;2023-03-13T02:32:49;11.40;;;3.22;;
51358;SDS011;37448;51.588;7.248;2023-03-13T02:34:50;15.43;;;2.97;;
51358;SDS011;37448;51.588;7.248;2023-03-13T02:36:55;7.07;;;1.95;;
51358;SDS011;37448;51.588;7.248;2023-03-13T02:38:58;8.65;;;3.03;;
51358;SDS011;37448;51.588;7.248;2023-03-13T02:41:04;9.10;;;2.28;;
51358;SDS011;37448;51.588;7.248;2023-03-13T02:45:28;8.10;;;3.17;;
51358;SDS011;37448;51.588;7.248;2023-03-13T02:47:29;11.75;;;2.20;;
51358;SDS011;37448;51.588;7.248;2023-03-13T02:49:29;14.65;;;2.92;;
51358;SDS011;37448;51.588;7.248;2023-03-13T02:53:39;8.82;;;1.83;;
51358;SDS011;37448;51.588;7.248;2023-03-13T02:55:42;13.02;;;2.63;;
51358;SDS011;37448;51.588;7.248;2023-03-13T02:57:44;16.02;;;2.70;;
51358;SDS011;37448;51.588;7.248;2023-03-13T02:59:45;9.18;;;1.90;;
51358;SDS011;37448;51.588;7.248;2023-03-13T03:01:45;9.93;;;2.83;;
51358;SDS011;37448;51.588;7.248;2023-03-13T03:03:46;15.20;;;3.58;;
51358;SDS011;37448;51.588;7.248;2023-03-13T03:05:46;14.93;;;3.00;;
51358;SDS011;37448;51.588;7.248;2023-03-13T03:07:47;7.65;;;2.75;;
51358;SDS011;37448;51.588;7.248;2023-03-13T03:09:48;10.30;;;2.33;;
51358;SDS011;37448;51.588;7.248;2023-03-13T03:11:52;9.05;;;2.08;;
51358;SDS011;37448;51.588;7.248;2023-03-13T03:13:53;17.42;;;2.92;;
51358;SDS011;37448;51.588;7.248;2023-03-13T03:15:54;11.50;;;2.50;;
51358;SDS011;37448;51.588;7.248;2023-03-13T03:17:54;9.38;;;1.92;;
51358;SDS011;37448;51.588;7.248;2023-03-13T03:19:55;8.93;;;3.38;;
51358;SDS011;37448;51.588;7.248;2023-03-13T03:21:55;9.73;;;3.28;;
51358;SDS011;37448;51.588;7.248;2023-03-13T03:23:56;6.78;;;2.03;;
51358;SDS011;37448;51.588;7.248;2023-03-13T03:25:58;9.40;;;2.85;;
51358;SDS011;37448;51.588;7.248;2023-03-13T03:27:59;9.88;;;2.40;;
51358;SDS011;37448;51.588;7.248;2023-03-13T03:30:00;8.20;;;2.28;;
51358;SDS011;37448;51.588;7.248;2023-03-13T03:32:01;14.40;;;2.70;;
51358;SDS011;37448;51.588;7.248;2023-03-13T03:34:02;7.43;;;1.90;;
51358;SDS011;37448;51.588;7.248;2023-03-13T03:36:04;11.35;;;1.88;;
51358;SDS011;37448;51.588;7.248;2023-03-13T03:38:07;6.07;;;2.55;;
51358;SDS011;37448;51.588;7.248;2023-03-13T03:40:08;6.95;;;1.73;;
51358;SDS011;37448;51.588;7.248;2023-03-13T03:42:10;8.27;;;2.05;;
51358;SDS011;37448;51.588;7.248;2023-03-13T03:44:11;11.18;;;2.00;;
51358;SDS011;37448;51.588;7.248;2023-03-13T03:46:23;10.00;;;2.40;;
51358;SDS011;37448;51.588;7.248;2023-03-13T03:48:24;5.50;;;1.98;;
51358;SDS011;37448;51.588;7.248;2023-03-13T03:50:25;8.95;;;2.33;;
51358;SDS011;37448;51.588;7.248;2023-03-13T03:52:31;10.05;;;2.13;;
51358;SDS011;37448;51.588;7.248;2023-03-13T03:54:31;5.13;;;1.90;;
51358;SDS011;37448;51.588;7.248;2023-03-13T03:56:33;12.27;;;2.05;;
51358;SDS011;37448;51.588;7.248;2023-03-13T03:58:34;5.65;;;1.70;;
51358;SDS011;37448;51.588;7.248;2023-03-13T04:01:02;7.75;;;2.83;;
51358;SDS011;37448;51.588;7.248;2023-03-13T04:03:04;4.45;;;1.95;;
51358;SDS011;37448;51.588;7.248;2023-03-13T04:05:04;5.97;;;1.63;;
51358;SDS011;37448;51.588;7.248;2023-03-13T04:07:07;11.57;;;3.15;;
51358;SDS011;37448;51.588;7.248;2023-03-13T04:09:08;6.97;;;2.60;;
51358;SDS011;37448;51.588;7.248;2023-03-13T04:11:10;9.18;;;2.20;;
51358;SDS011;37448;51.588;7.248;2023-03-13T04:13:14;6.45;;;2.08;;
51358;SDS011;37448;51.588;7.248;2023-03-13T04:15:15;7.47;;;1.98;;
51358;SDS011;37448;51.588;7.248;2023-03-13T04:17:16;5.03;;;2.13;;
51358;SDS011;37448;51.588;7.248;2023-03-13T04:19:18;6.47;;;2.10;;
51358;SDS011;37448;51.588;7.248;2023-03-13T04:21:18;5.95;;;1.77;;
51358;SDS011;37448;51.588;7.248;2023-03-13T04:23:30;2.47;;;1.60;;
51358;SDS011;37448;51.588;7.248;2023-03-13T04:25:31;2.83;;;1.70;;
51358;SDS011;37448;51.588;7.248;2023-03-13T04:27:34;5.25;;;1.33;;
51358;SDS011;37448;51.588;7.248;2023-03-13T04:29:35;5.10;;;2.03;;
51358;SDS011;37448;51.588;7.248;2023-03-13T04:32:14;3.17;;;1.42;;
51358;SDS011;37448;51.588;7.248;2023-03-13T04:34:41;4.18;;;1.88;;
51358;SDS011;37448;51.588;7.248;2023-03-13T04:37:20;3.70;;;1.88;;
51358;SDS011;37448;51.588;7.248;2023-03-13T04:39:55;3.75;;;1.92;;
51358;SDS011;37448;51.588;7.248;2023-03-13T04:42:11;7.43;;;1.88;;
51358;SDS011;37448;51.588;7.248;2023-03-13T04:44:26;4.20;;;1.60;;
51358;SDS011;37448;51.588;7.248;2023-03-13T04:46:31;5.50;;;1.95;;
51358;SDS011;37448;51.588;7.248;2023-03-13T04:48:44;2.28;;;1.20;;
51358;SDS011;37448;51.588;7.248;2023-03-13T04:50:58;7.93;;;2.25;;
51358;SDS011;37448;51.588;7.248;2023-03-13T04:53:25;3.53;;;2.08;;
51358;SDS011;37448;51.588;7.248;2023-03-13T04:55:53;8.40;;;2.22;;
51358;SDS011;37448;51.588;7.248;2023-03-13T04:58:08;4.38;;;2.25;;
51358;SDS011;37448;51.588;7.248;2023-03-13T05:00:38;4.55;;;2.33;;
51358;SDS011;37448;51.588;7.248;2023-03-13T05:03:19;2.92;;;1.42;;
51358;SDS011;37448;51.588;7.248;2023-03-13T05:05:34;3.55;;;1.48;;
51358;SDS011;37448;51.588;7.248;2023-03-13T05:07:52;4.30;;;1.50;;
51358;SDS011;37448;51.588;7.248;2023-03-13T05:10:04;4.38;;;1.75;;
51358;SDS011;37448;51.588;7.248;2023-03-13T05:12:05;4.05;;;1.60;;
51358;SDS011;37448;51.588;7.248;2023-03-13T05:14:24;2.20;;;1.52;;
51358;SDS011;37448;51.588;7.248;2023-03-13T05:16:45;3.20;;;1.60;;
51358;SDS011;37448;51.588;7.248;2023-03-13T05:19:07;3.42;;;1.75;;
51358;SDS011;37448;51.588;7.248;2023-03-13T05:21:34;4.88;;;1.55;;
51358;SDS011;37448;51.588;7.248;2023-03-13T05:23:53;3.67;;;1.83;;
51358;SDS011;37448;51.588;7.248;2023-03-13T05:26:06;1.85;;;1.40;;
51358;SDS011;37448;51.588;7.248;2023-03-13T05:28:06;5.22;;;1.63;;
51358;SDS011;37448;51.588;7.248;2023-03-13T05:30:27;2.15;;;1.05;;
51358;SDS011;37448;51.588;7.248;2023-03-13T05:32:41;3.25;;;1.70;;
51358;SDS011;37448;51.588;7.248;2023-03-13T05:35:07;3.95;;;1.40;;
51358;SDS011;37448;51.588;7.248;2023-03-13T05:37:17;5.00;;;1.77;;
51358;SDS011;37448;51.588;7.248;2023-03-13T05:39:17;3.72;;;1.83;;
51358;SDS011;37448;51.588;7.248;2023-03-13T05:41:20;4.05;;;1.75;;
51358;SDS011;37448;51.588;7.248;2023-03-13T05:43:40;1.67;;;1.25;;
51358;SDS011;37448;51.588;7.248;2023-03-13T05:45:51;4.75;;;1.90;;
51358;SDS011;37448;51.588;7.248;2023-03-13T05:48:09;4.45;;;1.70;;
51358;SDS011;37448;51.588;7.248;2023-03-13T05:50:33;3.67;;;1.77;;
51358;SDS011;37448;51.588;7.248;2023-03-13T05:52:53;2.25;;;1.63;;
51358;SDS011;37448;51.588;7.248;2023-03-13T05:55:09;3.83;;;2.17;;
51358;SDS011;37448;51.588;7.248;2023-03-13T05:57:28;2.55;;;1.48;;
51358;SDS011;37448;51.588;7.248;2023-03-13T06:02:10;3.08;;;1.80;;
51358;SDS011;37448;51.588;7.248;2023-03-13T06:04:15;5.38;;;1.70;;
51358;SDS011;37448;51.588;7.248;2023-03-13T06:06:16;3.70;;;1.48;;
51358;SDS011;37448;51.588;7.248;2023-03-13T06:08:20;4.93;;;1.90;;
51358;SDS011;37448;51.588;7.248;2023-03-13T06:10:20;2.28;;;1.55;;
51358;SDS011;37448;51.588;7.248;2023-03-13T06:12:20;3.55;;;1.90;;
51358;SDS011;37448;51.588;7.248;2023-03-13T06:14:21;5.85;;;2.42;;
51358;SDS011;37448;51.588;7.248;2023-03-13T06:16:40;4.30;;;1.40;;
51358;SDS011;37448;51.588;7.248;2023-03-13T06:18:52;5.10;;;1.98;;
51358;SDS011;37448;51.588;7.248;2023-03-13T06:20:59;3.92;;;2.50;;
51358;SDS011;37448;51.588;7.248;2023-03-13T06:23:00;9.85;;;3.15;;
51358;SDS011;37448;51.588;7.248;2023-03-13T06:25:00;4.82;;;2.83;;
51358;SDS011;37448;51.588;7.248;2023-03-13T06:27:01;4.10;;;2.33;;
51358;SDS011;37448;51.588;7.248;2023-03-13T06:29:01;7.38;;;2.88;;
51358;SDS011;37448;51.588;7.248;2023-03-13T06:31:02;3.67;;;2.05;;
51358;SDS011;37448;51.588;7.248;2023-03-13T06:33:04;3.13;;;2.03;;
51358;SDS011;37448;51.588;7.248;2023-03-13T06:35:04;4.13;;;2.40;;
51358;SDS011;37448;51.588;7.248;2023-03-13T06:37:05;3.22;;;2.33;;
51358;SDS011;37448;51.588;7.248;2023-03-13T06:39:06;3.47;;;1.80;;
51358;SDS011;37448;51.588;7.248;2023-03-13T06:41:07;3.20;;;2.38;;
51358;SDS011;37448;51.588;7.248;2023-03-13T06:43:08;3.78;;;1.65;;
51358;SDS011;37448;51.588;7.248;2023-03-13T06:45:08;2.75;;;1.70;;
51358;SDS011;37448;51.588;7.248;2023-03-13T06:47:09;2.85;;;1.80;;
51358;SDS011;37448;51.588;7.248;2023-03-13T06:49:10;4.70;;;1.80;;
51358;SDS011;37448;51.588;7.248;2023-03-13T06:51:13;2.40;;;1.33;;
51358;SDS011;37448;51.588;7.248;2023-03-13T06:53:16;2.28;;;1.20;;
51358;SDS011;37448;51.588;7.248;2023-03-13T06:55:18;3.38;;;1.40;;
51358;SDS011;37448;51.588;7.248;2023-03-13T06:57:18;2.33;;;1.60;;
51358;SDS011;37448;51.588;7.248;2023-03-13T06:59:18;3.28;;;1.60;;
51358;SDS011;37448;51.588;7.248;2023-03-13T07:01:19;1.60;;;1.00;;
51358;SDS011;37448;51.588;7.248;2023-03-13T07:03:19;3.47;;;1.50;;
51358;SDS011;37448;51.588;7.248;2023-03-13T07:05:19;4.47;;;1.98;;
51358;SDS011;37448;51.588;7.248;2023-03-13T07:07:20;4.05;;;1.73;;
51358;SDS011;37448;51.588;7.248;2023-03-13T07:09:20;2.67;;;1.60;;
51358;SDS011;37448;51.588;7.248;2023-03-13T07:11:21;1.85;;;1.45;;
51358;SDS011;37448;51.588;7.248;2023-03-13T07:13:21;3.63;;;2.05;;
51358;SDS011;37448;51.588;7.248;2023-03-13T07:15:21;3.13;;;2.40;;
51358;SDS011;37448;51.588;7.248;2023-03-13T07:17:22;2.63;;;1.77;;
51358;SDS011;37448;51.588;7.248;2023-03-13T07:19:22;3.67;;;1.45;;
51358;SDS011;37448;51.588;7.248;2023-03-13T07:21:23;3.55;;;1.50;;
51358;SDS011;37448;51.588;7.248;2023-03-13T07:23:24;3.40;;;1.42;;
51358;SDS011;37448;51.588;7.248;2023-03-13T07:25:25;5.22;;;1.42;;
51358;SDS011;37448;51.588;7.248;2023-03-13T07:27:26;2.63;;;1.42;;
51358;SDS011;37448;51.588;7.248;2023-03-13T07:29:26;3.28;;;1.98;;
51358;SDS011;37448;51.588;7.248;2023-03-13T07:31:26;3.60;;;1.58;;
51358;SDS011;37448;51.588;7.248;2023-03-13T07:33:29;2.85;;;1.55;;
51358;SDS011;37448;51.588;7.248;2023-03-13T07:35:29;3.13;;;1.55;;
51358;SDS011;37448;51.588;7.248;2023-03-13T07:37:29;1.98;;;1.15;;
51358;SDS011;37448;51.588;7.248;2023-03-13T07:39:30;5.13;;;3.58;;
51358;SDS011;37448;51.588;7.248;2023-03-13T07:41:30;4.00;;;1.88;;
51358;SDS011;37448;51.588;7.248;2023-03-13T07:43:31;5.25;;;1.63;;
51358;SDS011;37448;51.588;7.248;2023-03-13T07:45:31;2.97;;;1.60;;
51358;SDS011;37448;51.588;7.248;2023-03-13T07:47:35;3.67;;;1.52;;
51358;SDS011;37448;51.588;7.248;2023-03-13T07:49:35;3.25;;;1.55;;
51358;SDS011;37448;51.588;7.248;2023-03-13T07:51:40;3.58;;;1.85;;
51358;SDS011;37448;51.588;7.248;2023-03-13T07:53:40;2.15;;;1.20;;
51358;SDS011;37448;51.588;7.248;2023-03-13T07:55:41;2.58;;;1.10;;
51358;SDS011;37448;51.588;7.248;2023-03-13T07:57:42;5.28;;;1.77;;
51358;SDS011;37448;51.588;7.248;2023-03-13T07:59:42;3.85;;;1.98;;
51358;SDS011;37448;51.588;7.248;2023-03-13T08:01:42;4.25;;;1.27;;
51358;SDS011;37448;51.588;7.248;2023-03-13T08:03:43;3.90;;;1.27;;
51358;SDS011;37448;51.588;7.248;2023-03-13T08:05:44;4.25;;;2.67;;
51358;SDS011;37448;51.588;7.248;2023-03-13T08:07:45;3.95;;;1.30;;
51358;SDS011;37448;51.588;7.248;2023-03-13T08:09:46;2.70;;;1.30;;
51358;SDS011;37448;51.588;7.248;2023-03-13T08:11:46;2.75;;;1.23;;
51358;SDS011;37448;51.588;7.248;2023-03-13T08:13:47;2.92;;;1.70;;
51358;SDS011;37448;51.588;7.248;2023-03-13T08:15:50;4.63;;;1.67;;
51358;SDS011;37448;51.588;7.248;2023-03-13T08:17:51;3.95;;;1.50;;
51358;SDS011;37448;51.588;7.248;2023-03-13T08:19:52;3.58;;;1.75;;
51358;SDS011;37448;51.588;7.248;2023-03-13T08:21:52;4.32;;;1.70;;
51358;SDS011;37448;51.588;7.248;2023-03-13T08:23:53;5.72;;;2.00;;
51358;SDS011;37448;51.588;7.248;2023-03-13T08:25:55;2.17;;;1.50;;
51358;SDS011;37448;51.588;7.248;2023-03-13T08:28:01;4.10;;;1.60;;
51358;SDS011;37448;51.588;7.248;2023-03-13T08:30:02;5.75;;;1.70;;
51358;SDS011;37448;51.588;7.248;2023-03-13T08:32:03;3.33;;;1.40;;
51358;SDS011;37448;51.588;7.248;2023-03-13T08:34:04;5.30;;;2.08;;
51358;SDS011;37448;51.588;7.248;2023-03-13T08:38:35;2.83;;;1.35;;
51358;SDS011;37448;51.588;7.248;2023-03-13T08:40:35;4.15;;;1.42;;
51358;SDS011;37448;51.588;7.248;2023-03-13T08:42:36;2.42;;;1.67;;
51358;SDS011;37448;51.588;7.248;2023-03-13T08:44:37;5.45;;;1.70;;
51358;SDS011;37448;51.588;7.248;2023-03-13T08:46:37;4.32;;;1.70;;
51358;SDS011;37448;51.588;7.248;2023-03-13T08:48:38;3.97;;;1.55;;
51358;SDS011;37448;51.588;7.248;2023-03-13T08:50:38;4.63;;;1.52;;
51358;SDS011;37448;51.588;7.248;2023-03-13T08:52:39;5.85;;;1.73;;
51358;SDS011;37448;51.588;7.248;2023-03-13T08:54:39;5.05;;;2.25;;
51358;SDS011;37448;51.588;7.248;2023-03-13T08:56:39;4.72;;;1.80;;
51358;SDS011;37448;51.588;7.248;2023-03-13T08:58:42;4.68;;;1.42;;
51358;SDS011;37448;51.588;7.248;2023-03-13T09:00:43;6.18;;;2.00;;
51358;SDS011;37448;51.588;7.248;2023-03-13T09:02:43;7.55;;;1.67;;
51358;SDS011;37448;51.588;7.248;2023-03-13T09:04:43;2.95;;;1.92;;
51358;SDS011;37448;51.588;7.248;2023-03-13T09:06:44;5.57;;;1.92;;
51358;SDS011;37448;51.588;7.248;2023-03-13T09:08:44;3.33;;;1.73;;
51358;SDS011;37448;51.588;7.248;2023-03-13T09:10:44;15.52;;;2.40;;
51358;SDS011;37448;51.588;7.248;2023-03-13T09:12:45;2.42;;;1.58;;
51358;SDS011;37448;51.588;7.248;2023-03-13T09:14:46;7.18;;;1.75;;
51358;SDS011;37448;51.588;7.248;2023-03-13T09:16:47;4.28;;;1.70;;
51358;SDS011;37448;51.588;7.248;2023-03-13T09:18:49;3.92;;;1.77;;
51358;SDS011;37448;51.588;7.248;2023-03-13T09:20:50;5.45;;;1.77;;
51358;SDS011;37448;51.588;7.248;2023-03-13T09:22:51;9.70;;;2.33;;
51358;SDS011;37448;51.588;7.248;2023-03-13T09:24:52;4.55;;;1.92;;
51358;SDS011;37448;51.588;7.248;2023-03-13T09:26:52;4.63;;;1.85;;
51358;SDS011;37448;51.588;7.248;2023-03-13T09:28:53;6.40;;;1.58;;
51358;SDS011;37448;51.588;7.248;2023-03-13T09:30:54;2.53;;;1.40;;
51358;SDS011;37448;51.588;7.248;2023-03-13T09:32:54;2.80;;;1.65;;
51358;SDS011;37448;51.588;7.248;2023-03-13T09:34:55;2.25;;;1.83;;
51358;SDS011;37448;51.588;7.248;2023-03-13T09:36:55;5.18;;;1.67;;
51358;SDS011;37448;51.588;7.248;2023-03-13T09:38:57;4.22;;;1.38;;
51358;SDS011;37448;51.588;7.248;2023-03-13T09:41:13;2.80;;;1.23;;
51358;SDS011;37448;51.588;7.248;2023-03-13T09:43:29;3.88;;;1.67;;
51358;SDS011;37448;51.588;7.248;2023-03-13T09:45:47;4.78;;;1.30;;
51358;SDS011;37448;51.588;7.248;2023-03-13T09:47:56;4.30;;;1.52;;
51358;SDS011;37448;51.588;7.248;2023-03-13T09:50:11;5.55;;;1.50;;
51358;SDS011;37448;51.588;7.248;2023-03-13T09:52:17;2.25;;;1.20;;
51358;SDS011;37448;51.588;7.248;2023-03-13T09:54:25;2.08;;;1.30;;
51358;SDS011;37448;51.588;7.248;2023-03-13T09:56:33;5.97;;;1.75;;
51358;SDS011;37448;51.588;7.248;2023-03-13T09:58:40;12.30;;;2.08;;
51358;SDS011;37448;51.588;7.248;2023-03-13T10:00:53;3.20;;;1.20;;
51358;SDS011;37448;51.588;7.248;2023-03-13T10:02:59;3.72;;;1.67;;
51358;SDS011;37448;51.588;7.248;2023-03-13T10:07:11;4.30;;;1.88;;
51358;SDS011;37448;51.588;7.248;2023-03-13T10:09:16;11.70;;;1.58;;
51358;SDS011;37448;51.588;7.248;2023-03-13T10:11:37;4.97;;;1.48;;
51358;SDS011;37448;51.588;7.248;2023-03-13T10:13:50;2.22;;;1.00;;
51358;SDS011;37448;51.588;7.248;2023-03-13T10:15:57;1.95;;;1.20;;
51358;SDS011;37448;51.588;7.248;2023-03-13T10:18:04;2.72;;;1.40;;
51358;SDS011;37448;51.588;7.248;2023-03-13T10:20:26;4.03;;;1.30;;
51358;SDS011;37448;51.588;7.248;2023-03-13T10:22:27;2.63;;;1.02;;
51358;SDS011;37448;51.588;7.248;2023-03-13T10:27:08;2.97;;;1.27;;
51358;SDS011;37448;51.588;7.248;2023-03-13T10:29:21;4.82;;;1.58;;
51358;SDS011;37448;51.588;7.248;2023-03-13T10:31:30;2.53;;;1.30;;
51358;SDS011;37448;51.588;7.248;2023-03-13T10:33:33;4.20;;;1.25;;
51358;SDS011;37448;51.588;7.248;2023-03-13T10:35:39;4.88;;;1.50;;
51358;SDS011;37448;51.588;7.248;2023-03-13T10:37:41;2.92;;;1.30;;
51358;SDS011;37448;51.588;7.248;2023-03-13T10:39:42;6.60;;;1.77;;
51358;SDS011;37448;51.588;7.248;2023-03-13T10:41:42;3.63;;;1.23;;
51358;SDS011;37448;51.588;7.248;2023-03-13T10:43:53;6.20;;;2.13;;
51358;SDS011;37448;51.588;7.248;2023-03-13T10:45:58;3.63;;;1.35;;
51358;SDS011;37448;51.588;7.248;2023-03-13T10:50:18;3.65;;;1.25;;
51358;SDS011;37448;51.588;7.248;2023-03-13T10:54:41;2.78;;;1.00;;
51358;SDS011;37448;51.588;7.248;2023-03-13T10:56:44;4.15;;;1.10;;
51358;SDS011;37448;51.588;7.248;2023-03-13T10:58:45;3.30;;;1.40;;
51358;SDS011;37448;51.588;7.248;2023-03-13T11:00:48;5.53;;;1.30;;
51358;SDS011;37448;51.588;7.248;2023-03-13T11:02:49;1.13;;;0.80;;
51358;SDS011;37448;51.588;7.248;2023-03-13T11:04:49;3.05;;;1.15;;
51358;SDS011;37448;51.588;7.248;2023-03-13T11:06:54;4.95;;;1.77;;
51358;SDS011;37448;51.588;7.248;2023-03-13T11:09:03;2.10;;;1.17;;
51358;SDS011;37448;51.588;7.248;2023-03-13T11:11:16;2.60;;;1.13;;
51358;SDS011;37448;51.588;7.248;2023-03-13T11:13:29;3.17;;;1.13;;
51358;SDS011;37448;51.588;7.248;2023-03-13T11:15:34;3.13;;;1.35;;
51358;SDS011;37448;51.588;7.248;2023-03-13T11:17:55;3.28;;;0.73;;
51358;SDS011;37448;51.588;7.248;2023-03-13T11:20:23;1.52;;;1.10;;
51358;SDS011;37448;51.588;7.248;2023-03-13T11:22:36;3.00;;;1.00;;
51358;SDS011;37448;51.588;7.248;2023-03-13T11:24:50;2.30;;;0.90;;
51358;SDS011;37448;51.588;7.248;2023-03-13T11:29:52;3.67;;;1.10;;
51358;SDS011;37448;51.588;7.248;2023-03-13T11:31:58;4.53;;;1.05;;
51358;SDS011;37448;51.588;7.248;2023-03-13T11:34:07;2.47;;;1.27;;
51358;SDS011;37448;51.588;7.248;2023-03-13T11:37:16;1.33;;;0.95;;
51358;SDS011;37448;51.588;7.248;2023-03-13T11:41:16;1.98;;;1.00;;
51358;SDS011;37448;51.588;7.248;2023-03-13T11:43:20;3.03;;;0.80;;
51358;SDS011;37448;51.588;7.248;2023-03-13T11:57:34;2.58;;;0.85;;
51358;SDS011;37448;51.588;7.248;2023-03-13T12:00:02;1.45;;;0.82;;
51358;SDS011;37448;51.588;7.248;2023-03-13T12:04:46;2.20;;;1.10;;
51358;SDS011;37448;51.588;7.248;2023-03-13T12:07:36;0.73;;;0.40;;
51358;SDS011;37448;51.588;7.248;2023-03-13T12:11:53;1.85;;;0.52;;
51358;SDS011;37448;51.588;7.248;2023-03-13T12:14:10;0.82;;;0.60;;
51358;SDS011;37448;51.588;7.248;2023-03-13T12:16:18;0.80;;;0.50;;
51358;SDS011;37448;51.588;7.248;2023-03-13T12:22:44;1.48;;;0.70;;
51358;SDS011;37448;51.588;7.248;2023-03-13T12:24:59;0.75;;;0.40;;
51358;SDS011;37448;51.588;7.248;2023-03-13T12:27:10;3.42;;;0.55;;
51358;SDS011;37448;51.588;7.248;2023-03-13T12:33:47;1.33;;;0.50;;
51358;SDS011;37448;51.588;7.248;2023-03-13T12:36:01;3.50;;;0.60;;
51358;SDS011;37448;51.588;7.248;2023-03-13T12:40:50;2.38;;;0.45;;
51358;SDS011;37448;51.588;7.248;2023-03-13T12:45:07;2.58;;;0.90;;
51358;SDS011;37448;51.588;7.248;2023-03-13T12:55:57;3.33;;;0.73;;
51358;SDS011;37448;51.588;7.248;2023-03-13T13:00:28;0.80;;;0.47;;
51358;SDS011;37448;51.588;7.248;2023-03-13T13:02:30;1.73;;;0.73;;
51358;SDS011;37448;51.588;7.248;2023-03-13T13:04:31;0.60;;;0.30;;
51358;SDS011;37448;51.588;7.248;2023-03-13T13:09:06;3.08;;;0.50;;
51358;SDS011;37448;51.588;7.248;2023-03-13T13:13:34;2.65;;;0.60;;
51358;SDS011;37448;51.588;7.248;2023-03-13T13:16:13;0.60;;;0.50;;
51358;SDS011;37448;51.588;7.248;2023-03-13T13:18:24;3.05;;;0.73;;
51358;SDS011;37448;51.588;7.248;2023-03-13T13:24:38;1.08;;;0.43;;
51358;SDS011;37448;51.588;7.248;2023-03-13T13:26:42;0.88;;;0.65;;
51358;SDS011;37448;51.588;7.248;2023-03-13T13:28:47;0.75;;;0.43;;
51358;SDS011;37448;51.588;7.248;2023-03-13T13:30:48;0.90;;;0.43;;
51358;SDS011;37448;51.588;7.248;2023-03-13T13:32:50;0.93;;;0.50;;
51358;SDS011;37448;51.588;7.248;2023-03-13T13:36:51;2.67;;;0.63;;
51358;SDS011;37448;51.588;7.248;2023-03-13T13:38:53;0.68;;;0.40;;
51358;SDS011;37448;51.588;7.248;2023-03-13T13:43:21;1.42;;;0.88;;
51358;SDS011;37448;51.588;7.248;2023-03-13T13:45:26;2.28;;;0.50;;
51358;SDS011;37448;51.588;7.248;2023-03-13T13:47:30;3.83;;;0.40;;
51358;SDS011;37448;51.588;7.248;2023-03-13T13:49:32;0.70;;;0.40;;
51358;SDS011;37448;51.588;7.248;2023-03-13T13:51:34;1.40;;;0.70;;
51358;SDS011;37448;51.588;7.248;2023-03-13T13:58:31;1.25;;;0.65;;
51358;SDS011;37448;51.588;7.248;2023-03-13T14:02:48;1.25;;;0.52;;
51358;SDS011;37448;51.588;7.248;2023-03-13T14:07:09;1.90;;;0.50;;
51358;SDS011;37448;51.588;7.248;2023-03-13T14:11:36;3.85;;;0.40;;
51358;SDS011;37448;51.588;7.248;2023-03-13T14:13:38;2.40;;;0.50;;
51358;SDS011;37448;51.588;7.248;2023-03-13T14:15:40;0.60;;;0.40;;
51358;SDS011;37448;51.588;7.248;2023-03-13T14:17:44;0.85;;;0.65;;